Time;durP1;ratioP1;P1;durP2;ratioP2;P2;SDS_P1;SDS_P2;PMS_P1;PMS_P2;Temp;Humidity;BMP_temperature;BMP_pressure;BME280_temperature;BME280_humidity;BME280_pressure;Samples;Min_cycle;Max_cycle;Signal;HPM_P1;HPM_P2
2021/11/04 00:01:02;;;;;;;13.48;10.18;;;10.20;98.30;;;;;;5025427;28;20040;-79
2021/11/04 00:03:28;;;;;;;12.88;10.65;;;10.20;98.30;;;;;;5025770;28;20068;-79
2021/11/04 00:05:53;;;;;;;14.95;11.32;;;10.20;98.30;;;;;;5016808;28;20030;-79
2021/11/04 00:08:20;;;;;;;12.98;9.57;;;10.20;98.30;;;;;;5030666;28;20061;-79
2021/11/04 00:10:45;;;;;;;12.32;10.85;;;10.20;98.30;;;;;;5031947;28;20025;-79
2021/11/04 00:13:11;;;;;;;13.85;10.93;;;10.20;98.50;;;;;;5031088;28;20522;-80
2021/11/04 00:15:37;;;;;;;13.65;10.60;;;10.20;98.50;;;;;;5036867;28;20140;-80
2021/11/04 00:18:03;;;;;;;11.77;9.93;;;10.20;98.50;;;;;;5043456;28;20021;-80
2021/11/04 00:20:30;;;;;;;12.80;10.70;;;10.20;98.50;;;;;;5026741;28;20425;-80
2021/11/04 00:22:55;;;;;;;13.48;11.55;;;10.20;98.50;;;;;;5030490;28;20071;-80
2021/11/04 00:25:21;;;;;;;16.90;12.75;;;10.20;98.60;;;;;;5028409;28;20073;-79
2021/11/04 00:27:48;;;;;;;14.25;11.35;;;10.30;98.60;;;;;;5030618;28;21053;-80
2021/11/04 00:30:15;;;;;;;13.60;10.80;;;10.30;98.60;;;;;;5011538;28;20038;-79
2021/11/04 00:32:49;;;;;;;12.85;11.00;;;10.20;98.60;;;;;;5022764;28;20022;-80
2021/11/04 00:35:15;;;;;;;17.33;12.20;;;10.20;98.60;;;;;;5030635;28;20036;-80
2021/11/04 00:37:41;;;;;;;13.82;11.23;;;10.20;98.50;;;;;;5024984;28;20025;-80
2021/11/04 00:40:08;;;;;;;14.23;11.10;;;10.20;98.40;;;;;;5017403;28;20120;-79
2021/11/04 00:42:33;;;;;;;13.48;10.70;;;10.20;98.40;;;;;;5021738;28;20040;-80
2021/11/04 00:44:59;;;;;;;12.35;10.40;;;10.20;98.40;;;;;;5030515;28;20030;-80
2021/11/04 00:47:25;;;;;;;16.33;11.93;;;10.20;98.50;;;;;;5026231;28;20110;-80
2021/11/04 00:49:50;;;;;;;18.08;12.98;;;10.10;98.50;;;;;;5033147;28;20045;-80
2021/11/04 00:52:16;;;;;;;12.90;11.45;;;10.10;98.50;;;;;;5020513;28;20065;-80
2021/11/04 00:54:41;;;;;;;13.23;11.38;;;10.10;98.50;;;;;;5022004;28;20045;-80
2021/11/04 00:57:07;;;;;;;15.57;11.90;;;10.10;98.60;;;;;;5030896;28;20652;-80
2021/11/04 00:59:32;;;;;;;15.90;11.48;;;10.10;98.60;;;;;;5013711;28;20026;-80
2021/11/04 01:01:58;;;;;;;15.93;11.65;;;10.20;98.60;;;;;;5016908;28;20037;-79
2021/11/04 01:04:23;;;;;;;13.38;10.43;;;10.10;98.60;;;;;;5024708;28;20069;-81
2021/11/04 01:06:49;;;;;;;14.75;11.40;;;10.10;98.60;;;;;;5028752;28;20119;-80
2021/11/04 01:09:15;;;;;;;12.65;10.63;;;10.10;98.60;;;;;;5031967;28;20030;-80
2021/11/04 01:11:40;;;;;;;16.38;12.57;;;10.10;98.60;;;;;;5025769;28;20029;-79
2021/11/04 01:14:06;;;;;;;16.38;12.52;;;10.10;98.60;;;;;;5030002;28;20124;-79
2021/11/04 01:16:31;;;;;;;17.45;12.23;;;10.10;98.60;;;;;;5031928;28;20044;-79
2021/11/04 01:18:57;;;;;;;14.40;11.75;;;10.10;98.60;;;;;;5027120;28;20033;-79
2021/11/04 01:21:23;;;;;;;15.00;12.05;;;10.10;98.70;;;;;;5024877;28;20049;-79
2021/11/04 01:23:48;;;;;;;13.98;11.88;;;10.10;98.70;;;;;;5043716;28;20045;-79
2021/11/04 01:26:14;;;;;;;17.05;12.82;;;10.10;98.70;;;;;;5027662;28;20030;-80
2021/11/04 01:28:39;;;;;;;17.75;12.35;;;10.10;98.70;;;;;;5013681;28;20108;-79
2021/11/04 01:31:05;;;;;;;15.63;12.70;;;10.10;98.80;;;;;;5021564;28;20033;-79
2021/11/04 01:33:31;;;;;;;15.18;12.77;;;10.10;98.80;;;;;;5025556;28;20025;-81
2021/11/04 01:35:57;;;;;;;17.60;13.70;;;10.10;98.90;;;;;;5028201;28;20037;-80
2021/11/04 01:38:22;;;;;;;15.55;12.88;;;10.10;98.90;;;;;;5040177;28;20053;-81
2021/11/04 01:40:48;;;;;;;16.35;11.77;;;10.00;98.80;;;;;;5027015;28;20030;-81
2021/11/04 01:43:14;;;;;;;16.25;12.40;;;10.10;98.90;;;;;;5026538;28;20064;-79
2021/11/04 01:45:39;;;;;;;18.25;13.77;;;10.00;98.90;;;;;;5021867;28;20026;-79
2021/11/04 01:48:05;;;;;;;16.45;12.93;;;10.00;98.80;;;;;;5019265;28;20075;-81
2021/11/04 01:50:32;;;;;;;15.35;12.20;;;10.00;98.80;;;;;;5024097;28;20473;-80
2021/11/04 01:52:58;;;;;;;20.55;12.85;;;10.00;98.90;;;;;;5028802;28;20056;-81
2021/11/04 01:55:26;;;;;;;16.13;11.20;;;10.00;98.80;;;;;;5043738;28;20069;-80
2021/11/04 01:57:52;;;;;;;14.98;12.30;;;10.00;98.80;;;;;;5021243;28;20495;-81
2021/11/04 02:00:21;;;;;;;16.80;12.82;;;10.00;98.80;;;;;;5011251;28;20401;-82
2021/11/04 02:02:55;;;;;;;16.77;12.95;;;10.00;98.90;;;;;;5022682;28;20033;-80
2021/11/04 02:05:29;;;;;;;17.05;12.68;;;10.00;98.90;;;;;;5038962;28;20045;-81
2021/11/04 02:08:08;;;;;;;19.58;12.93;;;10.00;99.00;;;;;;5013176;28;20038;-81
2021/11/04 02:10:40;;;;;;;18.92;13.35;;;10.00;99.00;;;;;;5031554;28;20087;-80
2021/11/04 02:13:25;;;;;;;10.73;8.40;;;10.00;99.00;;;;;;5019561;28;20083;-81
2021/11/04 02:15:56;;;;;;;17.00;13.45;;;10.00;99.00;;;;;;5038135;28;20025;-80
2021/11/04 02:18:23;;;;;;;17.30;13.02;;;10.00;99.00;;;;;;5030450;28;20030;-81
2021/11/04 02:21:10;;;;;;;17.33;12.65;;;10.00;98.90;;;;;;5025122;28;20036;-80
2021/11/04 02:24:01;;;;;;;15.57;12.90;;;10.00;99.00;;;;;;5016956;28;20037;-81
2021/11/04 02:26:28;;;;;;;16.60;13.15;;;9.90;98.90;;;;;;5029592;28;20029;-81
2021/11/04 02:28:54;;;;;;;16.38;13.48;;;9.90;99.00;;;;;;5016505;28;20117;-80
2021/11/04 02:31:21;;;;;;;16.48;13.32;;;9.90;99.10;;;;;;5023417;28;20112;-81
2021/11/04 02:33:47;;;;;;;14.55;12.07;;;9.90;99.10;;;;;;5021391;28;20053;-81
2021/11/04 02:36:13;;;;;;;16.25;12.38;;;9.90;99.10;;;;;;5028110;28;20084;-81
2021/11/04 02:38:39;;;;;;;14.75;11.80;;;9.90;99.10;;;;;;5033098;28;20037;-80
2021/11/04 02:41:06;;;;;;;17.92;14.43;;;9.90;99.10;;;;;;5026349;28;20038;-79
2021/11/04 02:43:33;;;;;;;15.38;12.18;;;9.90;99.10;;;;;;5026757;28;20398;-80
2021/11/04 02:46:00;;;;;;;20.67;13.65;;;9.90;99.10;;;;;;5018815;28;20464;-78
2021/11/04 02:48:27;;;;;;;17.55;13.48;;;9.90;99.10;;;;;;5016132;28;20056;-80
2021/11/04 02:50:53;;;;;;;19.02;14.32;;;9.90;99.10;;;;;;5026749;28;20032;-80
2021/11/04 02:53:22;;;;;;;15.82;13.55;;;9.90;99.10;;;;;;5028127;28;20038;-81
2021/11/04 02:55:49;;;;;;;16.92;13.10;;;9.90;99.10;;;;;;5025731;28;20026;-80
2021/11/04 02:58:15;;;;;;;18.23;14.45;;;9.90;99.10;;;;;;5027115;28;20041;-81
2021/11/04 03:00:46;;;;;;;18.92;13.93;;;9.90;99.10;;;;;;5023962;28;20034;-81
2021/11/04 03:03:12;;;;;;;21.30;14.48;;;9.90;99.00;;;;;;5013153;28;20542;-81
2021/11/04 03:05:37;;;;;;;15.15;12.55;;;9.90;99.10;;;;;;5035580;28;20132;-80
2021/11/04 03:08:03;;;;;;;17.77;13.75;;;9.80;99.10;;;;;;5032469;28;20136;-78
2021/11/04 03:10:29;;;;;;;16.48;12.93;;;9.80;99.10;;;;;;5025729;28;20101;-80
2021/11/04 03:12:55;;;;;;;16.15;13.07;;;9.80;99.10;;;;;;5029181;28;20463;-81
2021/11/04 03:15:22;;;;;;;18.40;14.05;;;9.80;99.10;;;;;;5025149;28;20538;-80
2021/11/04 03:17:51;;;;;;;19.42;14.45;;;9.80;99.10;;;;;;5028456;28;20040;-80
2021/11/04 03:20:17;;;;;;;17.42;14.07;;;9.80;99.20;;;;;;5026877;28;20030;-81
2021/11/04 03:22:44;;;;;;;18.45;13.38;;;9.70;99.20;;;;;;5024865;28;20037;-80
2021/11/04 03:25:10;;;;;;;18.23;13.73;;;9.80;99.20;;;;;;5039596;28;20073;-81
2021/11/04 03:27:40;;;;;;;17.42;13.90;;;9.70;99.20;;;;;;5034663;28;20056;-80
2021/11/04 03:30:09;;;;;;;17.27;12.88;;;9.70;99.20;;;;;;5037737;28;20056;-81
2021/11/04 03:32:37;;;;;;;15.27;12.05;;;9.70;99.30;;;;;;5023888;28;20026;-80
2021/11/04 03:35:02;;;;;;;17.60;14.38;;;9.70;99.30;;;;;;5030121;28;20021;-80
2021/11/04 03:37:29;;;;;;;16.95;12.95;;;9.70;99.30;;;;;;5034107;28;20033;-79
2021/11/04 03:39:55;;;;;;;17.45;13.73;;;9.70;99.30;;;;;;5029409;28;20034;-79
2021/11/04 03:42:22;;;;;;;17.90;14.07;;;9.70;99.30;;;;;;5027366;28;20588;-80
2021/11/04 03:44:48;;;;;;;18.08;14.00;;;9.70;99.30;;;;;;5033657;28;20037;-80
2021/11/04 03:47:16;;;;;;;17.38;12.95;;;9.70;99.30;;;;;;5037497;28;20474;-79
2021/11/04 03:49:43;;;;;;;16.02;13.48;;;9.70;99.30;;;;;;5042159;28;20032;-79
2021/11/04 03:52:09;;;;;;;17.00;13.52;;;9.70;99.30;;;;;;5027119;28;20157;-79
2021/11/04 03:54:35;;;;;;;18.83;14.25;;;9.70;99.40;;;;;;5022882;28;20113;-79
2021/11/04 03:57:01;;;;;;;15.82;12.60;;;9.70;99.40;;;;;;5039521;28;20187;-80
2021/11/04 03:59:27;;;;;;;18.17;14.55;;;9.70;99.40;;;;;;5017320;28;20613;-80
2021/11/04 04:01:54;;;;;;;18.58;14.90;;;9.70;99.50;;;;;;5021964;28;20033;-79
2021/11/04 04:04:19;;;;;;;17.27;13.23;;;9.60;99.50;;;;;;5038982;28;20188;-79
2021/11/04 04:06:53;;;;;;;18.40;14.38;;;9.60;99.60;;;;;;5047237;28;20079;-79
2021/11/04 04:09:20;;;;;;;19.25;14.25;;;9.60;99.60;;;;;;5041139;28;20480;-79
2021/11/04 04:11:45;;;;;;;17.98;13.75;;;9.60;99.60;;;;;;5043196;28;20025;-79
2021/11/04 04:14:11;;;;;;;17.52;13.88;;;9.60;99.60;;;;;;5029786;28;20144;-80
2021/11/04 04:16:36;;;;;;;15.80;12.93;;;9.60;99.70;;;;;;5038099;28;20033;-80
2021/11/04 04:19:02;;;;;;;17.13;13.68;;;9.60;99.70;;;;;;5026573;28;20451;-79
2021/11/04 04:21:27;;;;;;;16.90;13.20;;;9.50;99.70;;;;;;5041252;28;20049;-79
2021/11/04 04:23:53;;;;;;;17.08;12.52;;;9.50;99.80;;;;;;5030814;28;20037;-80
2021/11/04 04:26:18;;;;;;;16.08;12.13;;;9.50;99.90;;;;;;5029009;28;20037;-80
2021/11/04 04:28:44;;;;;;;15.60;12.43;;;9.50;99.90;;;;;;5022129;28;20038;-80
2021/11/04 04:31:10;;;;;;;14.55;12.23;;;9.50;99.90;;;;;;5011172;28;20037;-80
2021/11/04 04:33:35;;;;;;;17.90;12.82;;;9.40;99.90;;;;;;5018392;28;20033;-79
2021/11/04 04:36:01;;;;;;;14.55;11.50;;;9.40;99.90;;;;;;5030264;28;20034;-80
2021/11/04 04:38:26;;;;;;;15.50;12.50;;;9.40;99.90;;;;;;5017156;28;20088;-81
2021/11/04 04:40:52;;;;;;;18.63;13.27;;;9.40;99.90;;;;;;5025159;28;20119;-80
2021/11/04 04:43:17;;;;;;;16.67;12.30;;;9.40;99.90;;;;;;5029742;28;20036;-81
2021/11/04 04:45:43;;;;;;;15.55;12.85;;;9.40;99.90;;;;;;5041229;28;20055;-79
2021/11/04 04:48:10;;;;;;;18.48;12.90;;;9.40;99.90;;;;;;5015577;28;20436;-80
2021/11/04 04:50:37;;;;;;;15.65;12.43;;;9.40;99.90;;;;;;5023463;28;20030;-80
2021/11/04 04:53:03;;;;;;;15.65;12.70;;;9.40;99.90;;;;;;5031751;28;20099;-80
2021/11/04 04:55:28;;;;;;;16.80;11.85;;;9.40;99.90;;;;;;5027202;28;20477;-80
2021/11/04 04:57:54;;;;;;;18.35;12.95;;;9.40;99.90;;;;;;5027223;28;20057;-80
2021/11/04 05:00:20;;;;;;;13.93;11.48;;;9.40;99.90;;;;;;5014251;28;20037;-79
2021/11/04 05:02:46;;;;;;;17.67;12.77;;;9.40;99.90;;;;;;5023677;28;20026;-80
2021/11/04 05:05:13;;;;;;;16.83;11.75;;;9.40;99.90;;;;;;5030204;28;20038;-82
2021/11/04 05:07:39;;;;;;;14.15;10.82;;;9.40;99.90;;;;;;5024108;28;20497;-80
2021/11/04 05:10:06;;;;;;;16.45;11.85;;;9.50;99.90;;;;;;5028694;28;20090;-81
2021/11/04 05:12:32;;;;;;;14.27;10.80;;;9.50;99.90;;;;;;5025072;28;20056;-81
2021/11/04 05:14:58;;;;;;;14.60;11.23;;;9.40;99.90;;;;;;5022818;28;20167;-80
2021/11/04 05:17:24;;;;;;;15.45;10.85;;;9.40;99.90;;;;;;5032359;28;20444;-79
2021/11/04 05:19:50;;;;;;;13.07;10.10;;;9.40;99.90;;;;;;5025884;28;20032;-79
2021/11/04 05:22:15;;;;;;;13.63;9.90;;;9.40;99.90;;;;;;5022712;28;20371;-80
2021/11/04 05:24:41;;;;;;;13.55;9.82;;;9.40;99.90;;;;;;5037489;28;20406;-80
2021/11/04 05:27:09;;;;;;;11.38;9.48;;;9.40;99.90;;;;;;5044103;28;20040;-80
2021/11/04 05:29:34;;;;;;;12.82;9.75;;;9.30;99.90;;;;;;5026912;28;20021;-79
2021/11/04 05:32:01;;;;;;;14.98;10.13;;;9.20;99.90;;;;;;5035378;28;20474;-80
2021/11/04 05:34:27;;;;;;;14.55;11.02;;;9.20;99.90;;;;;;5014362;28;20351;-82
2021/11/04 05:36:53;;;;;;;12.25;9.93;;;9.20;99.90;;;;;;5035147;28;20022;-81
2021/11/04 05:39:19;;;;;;;13.85;10.38;;;9.10;99.90;;;;;;5034808;28;20171;-80
2021/11/04 05:41:44;;;;;;;13.73;10.93;;;9.20;99.90;;;;;;5040379;28;20034;-79
2021/11/04 05:44:11;;;;;;;14.38;10.10;;;9.20;99.90;;;;;;5035316;28;20477;-79
2021/11/04 05:46:36;;;;;;;14.05;9.65;;;9.20;99.90;;;;;;5035403;28;20037;-79
2021/11/04 05:49:02;;;;;;;11.70;9.10;;;9.10;99.90;;;;;;5039245;28;20017;-81
2021/11/04 05:51:28;;;;;;;12.88;10.18;;;9.10;99.90;;;;;;5050244;28;20120;-81
2021/11/04 05:53:53;;;;;;;15.73;10.20;;;9.00;99.90;;;;;;5020173;28;20038;-80
2021/11/04 05:56:19;;;;;;;12.20;9.75;;;9.00;99.90;;;;;;5024140;28;20043;-81
2021/11/04 05:58:44;;;;;;;12.98;9.95;;;9.00;99.90;;;;;;5027222;28;20037;-80
2021/11/04 06:01:10;;;;;;;14.70;9.60;;;9.00;99.90;;;;;;5030955;28;20036;-80
2021/11/04 06:03:35;;;;;;;13.38;9.50;;;9.00;99.90;;;;;;5033923;28;20060;-80
2021/11/04 06:06:00;;;;;;;14.05;10.65;;;9.00;99.90;;;;;;5028965;28;20057;-80
2021/11/04 06:08:26;;;;;;;14.25;10.30;;;9.00;99.90;;;;;;5028452;28;20437;-80
2021/11/04 06:10:52;;;;;;;15.52;10.77;;;9.00;99.90;;;;;;5019539;28;20127;-81
2021/11/04 06:13:17;;;;;;;12.95;10.68;;;9.00;99.90;;;;;;5017471;28;20056;-81
2021/11/04 06:15:43;;;;;;;15.07;11.73;;;9.00;99.90;;;;;;5023908;28;20038;-79
2021/11/04 06:18:08;;;;;;;19.65;12.20;;;8.90;99.90;;;;;;5030019;28;20030;-80
2021/11/04 06:20:34;;;;;;;16.63;12.00;;;8.90;99.90;;;;;;5021509;28;20036;-79
2021/11/04 06:22:59;;;;;;;15.90;11.73;;;8.80;99.90;;;;;;5023827;28;20394;-79
2021/11/04 06:25:25;;;;;;;15.38;10.82;;;8.80;99.90;;;;;;5025337;28;20088;-79
2021/11/04 06:27:51;;;;;;;15.82;12.18;;;8.90;99.90;;;;;;5041882;28;20151;-80
2021/11/04 06:30:16;;;;;;;18.65;10.75;;;8.90;99.90;;;;;;5022381;28;20378;-79
2021/11/04 06:32:42;;;;;;;16.95;11.15;;;8.90;99.90;;;;;;5028853;28;20033;-81
2021/11/04 06:35:09;;;;;;;20.73;12.27;;;8.90;99.90;;;;;;5019836;28;20037;-79
2021/11/04 06:37:35;;;;;;;15.15;10.98;;;8.90;99.90;;;;;;5034369;28;20026;-81
2021/11/04 06:40:02;;;;;;;15.82;10.52;;;9.00;99.90;;;;;;5035230;28;20104;-79
2021/11/04 06:42:28;;;;;;;13.45;10.68;;;9.00;99.90;;;;;;5032319;28;20659;-79
2021/11/04 06:44:53;;;;;;;14.75;10.90;;;9.00;99.90;;;;;;5015177;28;20466;-81
2021/11/04 06:47:41;;;;;;;14.68;10.13;;;9.00;99.90;;;;;;5023920;28;20039;-79
2021/11/04 06:50:09;;;;;;;12.90;10.68;;;9.00;99.90;;;;;;5029762;28;20690;-81
2021/11/04 06:53:09;;;;;;;13.38;9.63;;;9.00;99.90;;;;;;5025158;28;20029;-80
2021/11/04 06:55:39;;;;;;;16.52;11.65;;;8.90;99.90;;;;;;5024989;28;20049;-78
2021/11/04 06:58:05;;;;;;;16.13;10.68;;;8.90;99.90;;;;;;5024634;28;20045;-80
2021/11/04 07:00:32;;;;;;;13.50;10.27;;;8.90;99.90;;;;;;5026549;28;20466;-79
2021/11/04 07:03:22;;;;;;;16.05;12.05;;;8.90;99.90;;;;;;5025886;28;20095;-79
2021/11/04 07:05:48;;;;;;;17.02;12.13;;;8.90;99.90;;;;;;5026711;28;20047;-81
2021/11/04 07:08:25;;;;;;;19.55;12.65;;;8.90;99.90;;;;;;5028398;28;20168;-80
2021/11/04 07:11:01;;;;;;;18.35;13.18;;;8.80;99.90;;;;;;5025036;28;20038;-79
2021/11/04 07:13:30;;;;;;;17.30;13.38;;;8.70;99.90;;;;;;5022198;28;20367;-80
2021/11/04 07:15:57;;;;;;;18.90;11.95;;;8.70;99.90;;;;;;5026547;28;20029;-78
2021/11/04 07:18:22;;;;;;;20.65;14.05;;;8.70;99.90;;;;;;5031842;28;20037;-81
2021/11/04 07:21:02;;;;;;;20.02;13.05;;;8.80;99.90;;;;;;5031780;28;20032;-79
2021/11/04 07:24:04;;;;;;;16.60;12.75;;;8.80;99.90;;;;;;5017877;28;20068;-79
2021/11/04 07:26:41;;;;;;;17.27;12.48;;;8.80;99.90;;;;;;5036939;28;20090;-79
2021/11/04 07:29:08;;;;;;;16.60;12.80;;;8.80;99.90;;;;;;5023675;28;20111;-78
2021/11/04 07:31:41;;;;;;;20.15;13.63;;;8.80;99.90;;;;;;5022144;28;20021;-79
2021/11/04 07:34:11;;;;;;;18.80;13.15;;;8.80;99.90;;;;;;5026091;28;20072;-78
2021/11/04 07:36:39;;;;;;;21.08;14.65;;;8.90;99.90;;;;;;5027837;28;20026;-78
2021/11/04 07:39:05;;;;;;;19.90;14.07;;;8.90;99.90;;;;;;5035349;28;20106;-79
2021/11/04 07:41:32;;;;;;;21.38;14.52;;;8.90;99.90;;;;;;5036360;28;20123;-78
2021/11/04 07:43:59;;;;;;;16.92;12.82;;;8.90;99.90;;;;;;5032268;28;20069;-79
2021/11/04 07:46:26;;;;;;;17.35;12.43;;;8.90;99.90;;;;;;5022407;28;20029;-79
2021/11/04 07:48:52;;;;;;;18.05;12.85;;;8.90;99.90;;;;;;5014087;28;20018;-80
2021/11/04 07:51:18;;;;;;;16.73;12.55;;;8.90;99.90;;;;;;5028938;28;20042;-79
2021/11/04 07:53:43;;;;;;;15.85;11.20;;;8.90;99.90;;;;;;5032911;28;20112;-79
2021/11/04 07:56:09;;;;;;;17.38;12.18;;;8.90;99.90;;;;;;5029453;28;20025;-79
2021/11/04 07:58:36;;;;;;;16.90;13.10;;;9.00;99.90;;;;;;5030913;28;20080;-78
2021/11/04 08:01:02;;;;;;;15.02;11.68;;;8.90;99.90;;;;;;5030020;28;20433;-79
2021/11/04 08:03:27;;;;;;;14.82;10.98;;;8.90;99.90;;;;;;5010846;28;20034;-79
2021/11/04 08:05:53;;;;;;;16.63;12.15;;;8.90;99.90;;;;;;5011673;28;20390;-79
2021/11/04 08:08:18;;;;;;;13.48;10.63;;;8.90;99.90;;;;;;5012198;28;20034;-78
2021/11/04 08:10:44;;;;;;;13.13;10.63;;;8.90;99.90;;;;;;5017527;28;20041;-79
2021/11/04 08:13:13;;;;;;;12.80;10.18;;;8.90;99.90;;;;;;5010936;28;20097;-79
2021/11/04 08:15:40;;;;;;;15.10;10.57;;;8.90;99.90;;;;;;5019025;28;20087;-79
2021/11/04 08:18:09;;;;;;;12.73;9.57;;;8.80;99.90;;;;;;5029791;28;20037;-79
2021/11/04 08:20:35;;;;;;;12.68;10.13;;;8.80;99.90;;;;;;5026904;28;20056;-79
2021/11/04 08:23:02;;;;;;;14.27;10.13;;;8.80;99.90;;;;;;5027156;28;20037;-80
2021/11/04 08:25:28;;;;;;;12.93;9.68;;;8.70;99.90;;;;;;5041040;28;20033;-79
2021/11/04 08:27:54;;;;;;;12.70;10.82;;;8.80;99.90;;;;;;5029291;28;20114;-79
2021/11/04 08:30:21;;;;;;;11.50;9.25;;;8.70;99.90;;;;;;5021489;28;20520;-78
2021/11/04 08:32:47;;;;;;;16.70;10.30;;;8.80;99.90;;;;;;5022056;28;20034;-77
2021/11/04 08:35:12;;;;;;;18.30;11.02;;;8.80;99.90;;;;;;5023207;28;20034;-78
2021/11/04 08:37:38;;;;;;;14.35;10.10;;;8.70;99.90;;;;;;5010446;28;20034;-78
2021/11/04 08:40:07;;;;;;;15.20;10.80;;;8.80;99.90;;;;;;5035089;28;20080;-78
2021/11/04 08:42:33;;;;;;;15.38;9.57;;;8.80;99.90;;;;;;5028079;28;20034;-78
2021/11/04 08:44:59;;;;;;;17.50;10.55;;;8.80;99.90;;;;;;5028978;28;20041;-80
2021/11/04 08:47:26;;;;;;;15.48;10.85;;;8.80;99.90;;;;;;5026830;28;20055;-77
2021/11/04 08:49:52;;;;;;;14.75;10.95;;;8.80;99.90;;;;;;5031039;28;20022;-79
2021/11/04 08:52:18;;;;;;;14.00;10.40;;;8.90;99.90;;;;;;5013585;28;20036;-79
2021/11/04 08:54:43;;;;;;;12.98;10.02;;;8.90;99.90;;;;;;5028474;28;20139;-79
2021/11/04 08:57:12;;;;;;;13.70;9.90;;;8.90;99.90;;;;;;5030007;28;20462;-79
2021/11/04 08:59:41;;;;;;;13.18;9.70;;;8.90;99.90;;;;;;5026501;28;20509;-79
2021/11/04 09:02:09;;;;;;;13.25;9.88;;;8.90;99.90;;;;;;5021627;28;20032;-79
2021/11/04 09:04:35;;;;;;;11.88;8.80;;;8.90;99.90;;;;;;5026407;28;20041;-78
2021/11/04 09:07:00;;;;;;;12.65;8.40;;;9.00;99.90;;;;;;5029381;28;20026;-78
2021/11/04 09:09:26;;;;;;;10.70;8.32;;;8.90;99.90;;;;;;5026658;28;20391;-78
2021/11/04 09:11:51;;;;;;;9.18;7.60;;;9.00;99.90;;;;;;5021331;28;20112;-79
2021/11/04 09:14:17;;;;;;;9.70;7.57;;;8.90;99.90;;;;;;5025851;28;20409;-79
2021/11/04 09:16:43;;;;;;;8.55;6.70;;;8.90;99.90;;;;;;5029217;28;20030;-79
2021/11/04 09:19:08;;;;;;;9.70;7.22;;;8.80;99.90;;;;;;5014913;28;20045;-78
2021/11/04 09:21:34;;;;;;;8.93;6.47;;;8.80;99.90;;;;;;5030594;28;20100;-78
2021/11/04 09:24:00;;;;;;;10.27;6.72;;;8.80;99.90;;;;;;5014512;28;20112;-78
2021/11/04 09:26:26;;;;;;;9.43;6.70;;;8.70;99.90;;;;;;5022819;28;20522;-79
2021/11/04 09:28:51;;;;;;;7.10;5.60;;;8.60;99.90;;;;;;5009690;28;20451;-78
2021/11/04 09:31:17;;;;;;;8.50;6.68;;;8.60;99.90;;;;;;5010387;28;20037;-78
2021/11/04 09:33:42;;;;;;;10.00;6.65;;;8.60;99.90;;;;;;5014139;28;20093;-78
2021/11/04 09:36:08;;;;;;;6.65;5.85;;;8.60;99.90;;;;;;5028340;28;20036;-79
2021/11/04 09:38:34;;;;;;;7.82;6.78;;;8.60;99.90;;;;;;5009352;28;20471;-78
2021/11/04 09:41:00;;;;;;;8.98;5.28;;;8.50;99.90;;;;;;5022539;28;20045;-78
2021/11/04 09:43:26;;;;;;;6.68;5.70;;;8.50;99.90;;;;;;5026412;28;20030;-79
2021/11/04 09:45:51;;;;;;;7.82;5.78;;;8.40;99.90;;;;;;5025001;28;20541;-80
2021/11/04 09:48:17;;;;;;;8.32;6.40;;;8.40;99.90;;;;;;5028614;28;20029;-80
2021/11/04 09:50:44;;;;;;;5.47;4.75;;;8.40;99.90;;;;;;5029419;28;20049;-79
2021/11/04 09:53:10;;;;;;;8.68;5.63;;;8.40;99.90;;;;;;5024092;28;20064;-78
2021/11/04 09:55:35;;;;;;;7.10;5.38;;;8.40;99.90;;;;;;5025876;28;20483;-78
2021/11/04 09:58:02;;;;;;;10.13;5.15;;;8.40;99.90;;;;;;5022955;28;20029;-78
2021/11/04 10:00:37;;;;;;;6.88;4.75;;;8.30;99.90;;;;;;5009764;28;20112;-79
2021/11/04 10:03:12;;;;;;;6.72;4.75;;;8.30;99.90;;;;;;5013574;28;20026;-80
2021/11/04 10:05:49;;;;;;;6.38;4.80;;;8.30;99.90;;;;;;5042432;28;20033;-79
2021/11/04 10:08:18;;;;;;;6.10;5.07;;;8.30;99.90;;;;;;5027880;28;20079;-79
2021/11/04 10:10:45;;;;;;;6.90;4.68;;;8.20;99.90;;;;;;5028705;28;20453;-79
2021/11/04 10:13:11;;;;;;;6.85;5.18;;;8.30;99.90;;;;;;5022295;28;20034;-79
2021/11/04 10:15:40;;;;;;;7.03;5.20;;;8.30;99.90;;;;;;5016481;28;20448;-79
2021/11/04 10:18:20;;;;;;;6.38;4.82;;;8.40;99.90;;;;;;5028194;28;20079;-79
2021/11/04 10:21:03;;;;;;;5.70;4.43;;;8.40;99.90;;;;;;5012840;28;20033;-79
2021/11/04 10:23:55;;;;;;;5.65;3.92;;;8.40;99.90;;;;;;5018118;28;20025;-79
2021/11/04 10:26:24;;;;;;;5.82;4.03;;;8.40;99.90;;;;;;5013298;28;20390;-79
2021/11/04 10:29:01;;;;;;;4.63;3.97;;;8.50;99.90;;;;;;5021124;28;20053;-81
2021/11/04 10:31:36;;;;;;;5.30;3.70;;;8.50;99.90;;;;;;5024721;28;20084;-79
2021/11/04 10:34:02;;;;;;;6.63;3.53;;;8.50;99.90;;;;;;5026775;28;20025;-80
2021/11/04 10:36:27;;;;;;;5.35;3.40;;;8.50;99.90;;;;;;5026247;28;20375;-78
2021/11/04 10:38:56;;;;;;;5.72;3.50;;;8.50;99.90;;;;;;5037238;28;20374;-78
2021/11/04 10:41:25;;;;;;;5.13;3.53;;;8.50;99.90;;;;;;5027665;28;20100;-79
2021/11/04 10:43:56;;;;;;;3.53;3.17;;;8.50;99.90;;;;;;5026529;28;20042;-78
2021/11/04 10:46:26;;;;;;;3.72;3.17;;;8.40;99.90;;;;;;5026370;28;20025;-79
2021/11/04 10:48:57;;;;;;;5.68;3.20;;;8.40;99.90;;;;;;5026353;28;20026;-79
2021/11/04 10:51:23;;;;;;;4.15;3.05;;;8.40;99.90;;;;;;5026832;28;20149;-79
2021/11/04 10:53:57;;;;;;;5.20;3.50;;;8.40;99.90;;;;;;5026481;28;20113;-80
2021/11/04 10:56:23;;;;;;;4.97;3.42;;;8.50;99.90;;;;;;5025692;28;20103;-79
2021/11/04 10:59:15;;;;;;;6.60;3.60;;;8.50;99.90;;;;;;5026732;28;20076;-79
2021/11/04 11:01:44;;;;;;;5.63;3.55;;;8.40;99.90;;;;;;5026708;28;20107;-79
2021/11/04 11:04:12;;;;;;;4.00;3.53;;;8.40;99.90;;;;;;5026080;28;20037;-81
2021/11/04 11:06:53;;;;;;;4.78;3.75;;;8.50;99.90;;;;;;5025334;28;20032;-79
2021/11/04 11:09:24;;;;;;;5.70;3.92;;;8.50;99.90;;;;;;5025869;28;20064;-79
2021/11/04 11:11:52;;;;;;;4.75;3.20;;;8.50;99.90;;;;;;5026466;28;20068;-79
2021/11/04 11:14:18;;;;;;;5.05;4.18;;;8.50;99.90;;;;;;5025774;28;20061;-79
2021/11/04 11:16:48;;;;;;;5.38;3.75;;;8.60;99.90;;;;;;5026751;28;20037;-79
2021/11/04 11:19:28;;;;;;;5.15;3.78;;;8.50;99.90;;;;;;5024581;28;20029;-79
2021/11/04 11:21:55;;;;;;;5.07;3.92;;;8.50;99.90;;;;;;5006620;28;20116;-80
2021/11/04 11:24:38;;;;;;;6.50;3.60;;;8.50;99.90;;;;;;5023754;28;20067;-79
2021/11/04 11:27:07;;;;;;;5.20;3.63;;;8.50;99.90;;;;;;5026825;28;20069;-79
2021/11/04 11:29:34;;;;;;;4.82;3.58;;;8.50;99.90;;;;;;5022223;28;20026;-80
2021/11/04 11:32:01;;;;;;;6.32;4.13;;;8.60;99.90;;;;;;5026297;28;20033;-80
2021/11/04 11:34:28;;;;;;;3.75;2.95;;;8.60;99.90;;;;;;5011638;28;20097;-79
2021/11/04 11:37:15;;;;;;;3.65;2.72;;;8.60;99.90;;;;;;5025138;28;21985;-80
2021/11/04 11:39:43;;;;;;;4.63;3.08;;;8.60;99.90;;;;;;5031200;28;20133;-79
2021/11/04 11:42:11;;;;;;;10.93;3.17;;;8.60;99.90;;;;;;5031170;28;20041;-80
2021/11/04 11:44:37;;;;;;;3.80;2.80;;;8.60;99.90;;;;;;5030992;28;20521;-79
2021/11/04 11:47:04;;;;;;;3.58;2.97;;;8.60;99.90;;;;;;5029423;28;20321;-79
2021/11/04 11:49:31;;;;;;;4.13;2.97;;;8.60;99.90;;;;;;5048158;28;20033;-81
2021/11/04 11:51:57;;;;;;;3.13;2.40;;;8.60;99.90;;;;;;5030740;28;20227;-81
2021/11/04 11:54:58;;;;;;;2.95;2.13;;;8.60;99.90;;;;;;5018172;28;20038;-80
2021/11/04 11:57:24;;;;;;;3.28;1.90;;;8.60;99.90;;;;;;5029480;28;20029;-81
2021/11/04 11:59:58;;;;;;;2.65;1.90;;;8.60;99.90;;;;;;5026133;28;20029;-78
2021/11/04 12:02:53;;;;;;;3.92;2.10;;;8.60;99.90;;;;;;5026710;28;20045;-80
2021/11/04 12:05:21;;;;;;;5.80;1.52;;;8.70;99.90;;;;;;5026213;28;20037;-78
2021/11/04 12:08:08;;;;;;;3.10;2.35;;;8.70;99.90;;;;;;5025288;28;20030;-80
2021/11/04 12:10:41;;;;;;;2.05;1.70;;;8.60;99.90;;;;;;5020072;28;20021;-79
2021/11/04 12:13:27;;;;;;;2.35;2.15;;;8.70;99.90;;;;;;5030454;28;20025;-78
2021/11/04 12:16:16;;;;;;;2.08;1.42;;;8.70;99.90;;;;;;5030056;28;20087;-78
2021/11/04 12:18:51;;;;;;;2.83;1.35;;;8.70;99.90;;;;;;5056625;28;20120;-77
2021/11/04 12:21:22;;;;;;;3.45;1.52;;;8.70;99.90;;;;;;5048772;28;20040;-78
2021/11/04 12:23:48;;;;;;;1.70;1.45;;;8.70;99.90;;;;;;5034147;28;20033;-79
2021/11/04 12:26:15;;;;;;;2.15;1.15;;;8.70;99.90;;;;;;5030047;28;20018;-79
2021/11/04 12:28:42;;;;;;;1.85;1.08;;;8.80;99.90;;;;;;5031735;28;20362;-80
2021/11/04 12:31:22;;;;;;;1.25;0.95;;;8.80;99.90;;;;;;5031039;28;20390;-80
2021/11/04 12:33:50;;;;;;;1.02;0.93;;;8.70;99.90;;;;;;5029616;28;20051;-80
2021/11/04 12:36:45;;;;;;;1.58;1.25;;;8.60;99.90;;;;;;5028497;28;20021;-79
2021/11/04 12:39:25;;;;;;;2.50;1.10;;;8.60;99.90;;;;;;5020708;28;20060;-79
2021/11/04 12:41:53;;;;;;;1.83;1.05;;;8.60;99.90;;;;;;5028210;28;20044;-80
2021/11/04 12:44:23;;;;;;;1.08;0.90;;;8.60;99.90;;;;;;5029492;28;20038;-80
2021/11/04 12:46:49;;;;;;;0.80;0.70;;;8.60;99.90;;;;;;5025908;28;20434;-79